Time;durP1;ratioP1;P1;durP2;ratioP2;P2;SDS_P1;SDS_P2;PMS_P1;PMS_P2;Temp;Humidity;BMP_temperature;BMP_pressure;BME280_temperature;BME280_humidity;BME280_pressure;Samples;Min_cycle;Max_cycle;Signal;HPM_P1;HPM_P2
2023/03/26 00:00:42;;;;;;;3.03;0.60;;;13.70;67.00;;;;;;2314999;55;20961;-69
2023/03/26 00:03:12;;;;;;;3.35;0.60;;;13.70;66.90;;;;;;2311305;55;20995;-69
2023/03/26 00:05:38;;;;;;;4.55;0.88;;;13.70;66.80;;;;;;2311824;55;20951;-69
2023/03/26 00:08:07;;;;;;;3.03;0.70;;;13.70;66.90;;;;;;2551845;54;20971;-69
2023/03/26 00:10:35;;;;;;;1.75;0.50;;;13.70;66.90;;;;;;2312011;55;20931;-69
2023/03/26 00:13:04;;;;;;;3.58;0.90;;;13.60;66.80;;;;;;2312652;54;21294;-69
2023/03/26 00:15:30;;;;;;;2.62;0.62;;;13.60;66.80;;;;;;2550927;54;21391;-69
2023/03/26 00:17:59;;;;;;;3.45;0.82;;;13.60;67.00;;;;;;2312582;55;20988;-67
2023/03/26 00:20:26;;;;;;;4.07;0.95;;;13.60;67.00;;;;;;2311505;55;21590;-69
2023/03/26 00:22:54;;;;;;;2.22;0.65;;;13.60;67.00;;;;;;2314768;54;21093;-69
2023/03/26 00:25:21;;;;;;;4.03;0.80;;;13.60;67.00;;;;;;2312250;55;20947;-69
2023/03/26 00:27:48;;;;;;;3.97;0.73;;;13.60;67.10;;;;;;2311869;55;20979;-68
2023/03/26 00:30:15;;;;;;;2.70;0.70;;;13.60;67.20;;;;;;2314850;54;20961;-69
2023/03/26 00:32:43;;;;;;;2.30;0.90;;;13.60;67.30;;;;;;2311614;55;20931;-69
2023/03/26 00:35:09;;;;;;;6.60;0.88;;;13.60;67.30;;;;;;2314758;54;21052;-69
2023/03/26 00:37:41;;;;;;;3.15;0.82;;;13.60;67.30;;;;;;2553579;53;20955;-69
2023/03/26 00:40:09;;;;;;;2.85;0.70;;;13.60;67.20;;;;;;2314660;55;20959;-69
2023/03/26 00:42:36;;;;;;;2.72;0.70;;;13.60;67.30;;;;;;2314367;55;20952;-69
2023/03/26 00:45:05;;;;;;;2.40;0.80;;;13.60;67.30;;;;;;2315122;54;20964;-69
2023/03/26 00:47:31;;;;;;;5.15;0.70;;;13.60;67.30;;;;;;2313495;55;20968;-69
2023/03/26 00:49:57;;;;;;;3.87;1.30;;;13.60;67.30;;;;;;2314972;55;21086;-66
2023/03/26 00:52:23;;;;;;;3.72;0.77;;;13.60;67.30;;;;;;2311760;55;21023;-67
2023/03/26 00:54:50;;;;;;;5.50;0.85;;;13.60;67.30;;;;;;2552304;54;20996;-67
2023/03/26 00:57:17;;;;;;;4.30;1.00;;;13.60;67.30;;;;;;2551131;53;20997;-67
2023/03/26 00:59:48;;;;;;;4.18;1.23;;;13.60;67.30;;;;;;2550362;54;20948;-69
2023/03/26 01:02:17;;;;;;;4.03;0.80;;;13.60;67.20;;;;;;2552439;53;21834;-69
2023/03/26 01:04:46;;;;;;;3.17;0.98;;;13.60;67.20;;;;;;2312704;54;21079;-69
2023/03/26 01:07:15;;;;;;;4.50;0.70;;;13.70;67.30;;;;;;2551545;54;21027;-69
2023/03/26 01:09:48;;;;;;;3.00;0.95;;;13.70;67.30;;;;;;2552206;54;21064;-69
2023/03/26 01:12:18;;;;;;;7.43;0.90;;;13.60;67.20;;;;;;2552099;54;21493;-69
2023/03/26 01:14:47;;;;;;;4.35;0.70;;;13.70;67.30;;;;;;2313146;55;21051;-70
2023/03/26 01:17:16;;;;;;;3.08;0.90;;;13.70;67.30;;;;;;2551864;54;21022;-69
2023/03/26 01:20:45;;;;;;;3.03;0.70;;;13.70;67.30;;;;;;2552598;53;20944;-69
2023/03/26 01:23:12;;;;;;;4.40;0.90;;;13.70;66.00;;;;;;2551835;53;21009;-69
2023/03/26 01:25:41;;;;;;;3.40;0.80;;;13.70;67.30;;;;;;2311937;55;21386;-69
2023/03/26 01:28:07;;;;;;;3.25;0.70;;;13.70;67.30;;;;;;2552356;54;21024;-69
2023/03/26 01:30:43;;;;;;;2.70;0.57;;;13.70;67.40;;;;;;2312080;55;20951;-69
2023/03/26 01:33:36;;;;;;;2.22;0.70;;;13.80;67.10;;;;;;2312434;55;20999;-68
2023/03/26 01:36:15;;;;;;;4.25;1.00;;;13.70;67.10;;;;;;2312574;55;20943;-67
2023/03/26 01:38:58;;;;;;;5.05;1.20;;;13.70;67.00;;;;;;2551872;54;21873;-69
2023/03/26 01:41:44;;;;;;;3.65;0.73;;;13.70;66.70;;;;;;2311141;55;20980;-71
2023/03/26 01:45:14;;;;;;;2.97;0.73;;;13.70;66.40;;;;;;2312369;55;21063;-69
2023/03/26 01:47:40;;;;;;;2.37;0.82;;;13.80;66.00;;;;;;2551373;53;21071;-69
2023/03/26 01:50:08;;;;;;;3.15;0.88;;;13.70;67.20;;;;;;2310663;55;21036;-67
2023/03/26 01:52:35;;;;;;;3.87;0.80;;;13.70;67.10;;;;;;2550094;54;20963;-67
2023/03/26 01:55:05;;;;;;;4.75;0.90;;;13.70;67.20;;;;;;2550703;53;21037;-69
2023/03/26 01:58:25;;;;;;;4.90;1.10;;;13.70;67.20;;;;;;2550358;53;20971;-69
2023/03/26 02:00:56;;;;;;;1.73;0.52;;;13.70;67.00;;;;;;2548955;53;21045;-69
2023/03/26 02:03:38;;;;;;;2.30;0.73;;;13.70;67.10;;;;;;2548445;53;20956;-69
2023/03/26 02:06:41;;;;;;;2.42;0.90;;;13.70;66.90;;;;;;2549765;54;20944;-69
2023/03/26 02:09:08;;;;;;;;;;;13.80;66.60;;;;;;2553242;54;20971;-67
2023/03/26 02:11:34;;;;;;;2.97;0.80;;;13.80;66.10;;;;;;2309752;55;20074;-67
2023/03/26 02:14:04;;;;;;;3.58;0.80;;;13.70;67.20;;;;;;2313978;55;21281;-69
2023/03/26 02:16:31;;;;;;;2.78;0.70;;;13.80;67.30;;;;;;2309205;55;21007;-69
2023/03/26 02:18:58;;;;;;;5.35;0.80;;;13.70;67.20;;;;;;2309854;55;21335;-67
2023/03/26 02:21:24;;;;;;;2.83;0.70;;;13.70;67.20;;;;;;2548858;54;21027;-67
2023/03/26 02:24:02;;;;;;;2.70;0.80;;;13.70;67.20;;;;;;2549680;54;20952;-67
2023/03/26 02:26:32;;;;;;;5.25;0.90;;;13.80;67.20;;;;;;2309217;55;21534;-67
2023/03/26 02:29:00;;;;;;;6.37;1.20;;;13.70;66.90;;;;;;2549340;54;20996;-69
2023/03/26 02:31:26;;;;;;;3.05;0.70;;;13.70;67.00;;;;;;2309349;55;21798;-67
2023/03/26 02:33:54;;;;;;;3.12;0.77;;;13.70;67.00;;;;;;2549005;53;20968;-67
2023/03/26 02:36:23;;;;;;;3.10;0.88;;;13.70;67.00;;;;;;2549040;54;21433;-67
2023/03/26 02:38:50;;;;;;;5.15;1.37;;;13.70;66.90;;;;;;2549037;54;20977;-69
2023/03/26 02:41:16;;;;;;;4.25;1.00;;;13.70;66.80;;;;;;2549385;54;21837;-69
2023/03/26 02:43:43;;;;;;;3.50;0.98;;;13.60;67.40;;;;;;2548888;53;20963;-67
2023/03/26 02:46:12;;;;;;;4.50;1.00;;;13.70;66.70;;;;;;2549405;53;20955;-67
2023/03/26 02:48:41;;;;;;;4.82;0.98;;;13.60;66.60;;;;;;2311964;54;21008;-69
2023/03/26 02:51:07;;;;;;;4.82;0.88;;;13.60;66.50;;;;;;2549211;54;21015;-69
2023/03/26 02:53:36;;;;;;;4.40;0.80;;;13.60;66.60;;;;;;2309091;55;21719;-69
2023/03/26 02:56:02;;;;;;;4.53;0.82;;;13.60;66.60;;;;;;2548636;54;20988;-69
2023/03/26 02:58:29;;;;;;;4.15;0.70;;;13.60;66.70;;;;;;2548228;54;20951;-69
2023/03/26 03:00:58;;;;;;;4.55;0.95;;;13.60;66.70;;;;;;2311162;54;20936;-67
2023/03/26 03:03:25;;;;;;;4.82;1.00;;;13.60;66.60;;;;;;2311647;55;21825;-69
2023/03/26 03:05:56;;;;;;;2.67;0.75;;;13.60;66.60;;;;;;2311626;55;20979;-69
2023/03/26 03:08:28;;;;;;;4.40;1.02;;;13.60;66.50;;;;;;2549745;54;20977;-70
2023/03/26 03:10:59;;;;;;;5.80;0.88;;;13.50;66.40;;;;;;2311800;54;20968;-69
2023/03/26 03:13:26;;;;;;;2.65;0.90;;;13.50;66.40;;;;;;2310787;54;21008;-69
2023/03/26 03:15:52;;;;;;;3.87;0.95;;;13.50;66.50;;;;;;2550821;54;20975;-70
2023/03/26 03:18:22;;;;;;;4.43;1.17;;;13.50;66.50;;;;;;2311307;55;21499;-69
2023/03/26 03:20:48;;;;;;;3.85;0.90;;;13.50;66.50;;;;;;2311497;55;20959;-69
2023/03/26 03:23:15;;;;;;;4.25;0.80;;;13.50;66.60;;;;;;2550892;54;20980;-69
2023/03/26 03:25:41;;;;;;;2.67;0.98;;;13.50;66.50;;;;;;2550462;54;20983;-69
2023/03/26 03:28:10;;;;;;;3.83;0.70;;;13.50;66.60;;;;;;2311518;55;20912;-67
2023/03/26 03:30:39;;;;;;;2.50;0.90;;;13.50;66.60;;;;;;2550588;54;20951;-69
2023/03/26 03:33:05;;;;;;;3.15;0.80;;;13.50;66.40;;;;;;2313434;55;21100;-69
2023/03/26 03:35:36;;;;;;;5.87;1.00;;;13.50;66.50;;;;;;2550043;54;21322;-69
2023/03/26 03:38:02;;;;;;;4.28;0.90;;;13.50;66.50;;;;;;2311593;54;21397;-67
2023/03/26 03:40:33;;;;;;;4.03;0.85;;;13.50;66.50;;;;;;2310816;55;21027;-69
2023/03/26 03:43:00;;;;;;;3.80;0.90;;;13.50;66.50;;;;;;2310781;55;20951;-67
2023/03/26 03:45:26;;;;;;;3.72;1.17;;;13.50;66.50;;;;;;2550530;54;22228;-69
2023/03/26 03:47:52;;;;;;;2.17;0.65;;;13.50;66.40;;;;;;2551159;54;21000;-70
2023/03/26 03:50:19;;;;;;;2.78;0.90;;;13.50;66.40;;;;;;2311436;55;20956;-69
2023/03/26 03:52:45;;;;;;;6.20;0.73;;;13.50;66.40;;;;;;2550510;54;21048;-69
2023/03/26 03:55:12;;;;;;;4.32;1.00;;;13.50;66.40;;;;;;2550206;54;21033;-69
2023/03/26 03:57:39;;;;;;;2.03;0.52;;;13.50;66.40;;;;;;2550253;54;20959;-69
2023/03/26 04:00:10;;;;;;;3.45;0.90;;;13.50;66.40;;;;;;2311514;55;21006;-69
2023/03/26 04:02:37;;;;;;;5.65;1.30;;;13.50;66.20;;;;;;2550409;54;21036;-69
2023/03/26 04:05:04;;;;;;;4.28;0.93;;;13.50;66.40;;;;;;2551110;54;22005;-69
2023/03/26 04:07:31;;;;;;;4.37;1.05;;;13.50;66.30;;;;;;2310306;55;21023;-69
2023/03/26 04:10:04;;;;;;;5.80;0.98;;;13.50;66.30;;;;;;2314248;55;21056;-68
2023/03/26 04:12:30;;;;;;;5.28;1.20;;;13.50;66.30;;;;;;2311322;54;20980;-69
2023/03/26 04:14:57;;;;;;;5.07;0.98;;;13.50;66.30;;;;;;2314144;55;20977;-69
2023/03/26 04:17:24;;;;;;;5.00;1.12;;;13.50;66.30;;;;;;2311540;55;21015;-69
2023/03/26 04:19:53;;;;;;;6.03;0.98;;;13.50;66.30;;;;;;2551222;53;21527;-69
2023/03/26 04:22:20;;;;;;;4.22;0.90;;;13.50;66.30;;;;;;2310990;55;20988;-69
2023/03/26 04:24:48;;;;;;;2.95;0.65;;;13.50;66.20;;;;;;2310538;55;20984;-69
2023/03/26 04:27:16;;;;;;;5.20;1.05;;;13.50;66.20;;;;;;2551108;54;21835;-69
2023/03/26 04:29:44;;;;;;;5.68;1.02;;;13.50;66.20;;;;;;2311273;55;20951;-69
2023/03/26 04:32:18;;;;;;;3.35;0.70;;;13.50;66.20;;;;;;2550143;53;21146;-69
2023/03/26 04:34:44;;;;;;;2.83;0.80;;;13.50;66.20;;;;;;2551038;54;20955;-69
2023/03/26 04:37:20;;;;;;;3.53;0.73;;;13.50;66.20;;;;;;2311259;55;20939;-69
2023/03/26 04:39:46;;;;;;;3.47;0.80;;;13.60;66.00;;;;;;2310882;55;20995;-69
2023/03/26 04:42:13;;;;;;;3.40;1.30;;;13.50;66.20;;;;;;2551014;54;21500;-69
2023/03/26 04:44:41;;;;;;;5.25;0.70;;;13.60;66.30;;;;;;2550316;54;21004;-69
2023/03/26 04:47:07;;;;;;;2.70;0.90;;;13.60;66.30;;;;;;2551424;54;20982;-69
2023/03/26 04:49:33;;;;;;;5.20;0.90;;;13.60;66.30;;;;;;2310658;54;21892;-70
2023/03/26 04:52:03;;;;;;;6.30;1.12;;;13.60;66.30;;;;;;2551009;54;21051;-67
2023/03/26 04:54:29;;;;;;;2.20;0.60;;;13.60;66.10;;;;;;2550407;54;20940;-69
2023/03/26 04:57:24;;;;;;;2.72;0.70;;;13.60;66.30;;;;;;2311572;55;20975;-69
2023/03/26 04:59:50;;;;;;;2.97;0.62;;;13.60;65.60;;;;;;2314779;55;20997;-69
2023/03/26 05:02:17;;;;;;;3.53;0.77;;;13.60;66.30;;;;;;2305336;54;20975;-69
2023/03/26 05:04:47;;;;;;;6.37;0.75;;;13.60;66.30;;;;;;2303574;54;20975;-69
2023/03/26 05:07:16;;;;;;;11.12;1.30;;;13.60;66.30;;;;;;2312399;55;21003;-69
2023/03/26 05:09:42;;;;;;;4.93;0.73;;;13.60;66.20;;;;;;2312228;55;21398;-69
2023/03/26 05:12:09;;;;;;;6.75;1.00;;;13.60;66.30;;;;;;2312881;55;20980;-69
2023/03/26 05:14:35;;;;;;;2.25;0.60;;;13.60;66.20;;;;;;2311634;55;20972;-67
2023/03/26 05:17:04;;;;;;;4.55;1.00;;;13.60;66.20;;;;;;2312743;55;21011;-69
2023/03/26 05:19:31;;;;;;;5.37;1.00;;;13.70;66.30;;;;;;2551825;54;20924;-69
2023/03/26 05:21:57;;;;;;;3.87;1.17;;;13.60;66.20;;;;;;2312889;55;21015;-69
2023/03/26 05:24:24;;;;;;;3.15;0.95;;;13.70;66.30;;;;;;2552738;54;21286;-70
2023/03/26 05:26:51;;;;;;;5.03;0.93;;;13.70;66.30;;;;;;2551489;54;20915;-69
2023/03/26 05:29:19;;;;;;;5.03;0.90;;;13.70;66.20;;;;;;2315386;55;21015;-69
2023/03/26 05:31:47;;;;;;;4.00;0.90;;;13.70;66.20;;;;;;2312312;55;20947;-67
2023/03/26 05:34:14;;;;;;;2.78;0.90;;;13.70;66.20;;;;;;2312359;55;21788;-67
2023/03/26 05:36:41;;;;;;;2.85;0.93;;;13.70;66.20;;;;;;2551816;54;21746;-67
2023/03/26 05:39:07;;;;;;;3.33;0.80;;;13.70;66.20;;;;;;2552339;54;20952;-67
2023/03/26 05:41:34;;;;;;;3.42;0.80;;;13.70;66.20;;;;;;2551350;53;20989;-67
2023/03/26 05:44:00;;;;;;;2.00;0.70;;;13.80;66.20;;;;;;2550015;54;21059;-67
2023/03/26 05:46:27;;;;;;;3.72;0.75;;;13.70;66.20;;;;;;2307054;55;20981;-67
2023/03/26 05:48:54;;;;;;;4.07;0.82;;;13.70;66.20;;;;;;2302660;55;21539;-67
2023/03/26 05:51:22;;;;;;;6.82;1.10;;;13.80;66.30;;;;;;2303312;55;21007;-67
2023/03/26 05:53:48;;;;;;;2.92;0.60;;;13.80;66.30;;;;;;2303329;55;21035;-69
2023/03/26 05:56:14;;;;;;;3.17;0.68;;;13.70;66.10;;;;;;2304171;55;21055;-67
2023/03/26 05:58:42;;;;;;;4.95;0.82;;;13.80;66.10;;;;;;2306677;55;21011;-69
2023/03/26 06:01:15;;;;;;;4.12;0.70;;;13.80;66.20;;;;;;2296405;54;20969;-69
2023/03/26 06:03:43;;;;;;;2.97;0.73;;;13.80;66.10;;;;;;2298993;54;20988;-69
2023/03/26 06:06:16;;;;;;;2.15;0.70;;;13.80;66.20;;;;;;2304058;55;21591;-67
2023/03/26 06:08:48;;;;;;;3.87;0.80;;;13.80;66.10;;;;;;2304002;54;21011;-69
2023/03/26 06:11:15;;;;;;;2.62;0.70;;;13.80;66.10;;;;;;2304240;55;20931;-69
2023/03/26 06:13:41;;;;;;;2.65;0.60;;;13.80;66.20;;;;;;2542881;54;21000;-69
2023/03/26 06:16:10;;;;;;;3.15;0.98;;;13.80;66.20;;;;;;2304451;55;20950;-69
2023/03/26 06:18:36;;;;;;;5.45;1.50;;;13.80;66.30;;;;;;2304981;55;22011;-67
2023/03/26 06:21:04;;;;;;;3.25;0.73;;;13.80;66.30;;;;;;2543130;53;21017;-67
2023/03/26 06:23:33;;;;;;;2.15;0.60;;;13.80;66.20;;;;;;2304504;55;21355;-67
2023/03/26 06:26:01;;;;;;;4.60;0.77;;;13.70;66.20;;;;;;2530496;54;20939;-67
2023/03/26 06:28:27;;;;;;;2.30;0.73;;;13.90;66.30;;;;;;2293680;55;20948;-67
2023/03/26 06:30:57;;;;;;;2.50;0.82;;;13.90;66.30;;;;;;2542457;54;20992;-67
2023/03/26 06:33:24;;;;;;;3.97;0.80;;;13.90;66.30;;;;;;2543340;53;21007;-67
2023/03/26 06:35:50;;;;;;;2.15;0.70;;;13.90;66.40;;;;;;2543287;54;20996;-67
2023/03/26 06:38:16;;;;;;;3.12;0.65;;;13.90;66.40;;;;;;2304432;55;22029;-67
2023/03/26 06:40:43;;;;;;;2.50;0.82;;;14.00;66.50;;;;;;2542695;54;21148;-68
2023/03/26 06:43:10;;;;;;;2.67;0.80;;;14.00;66.60;;;;;;2307568;55;20949;-68
2023/03/26 06:45:37;;;;;;;3.10;0.60;;;14.00;66.50;;;;;;2303787;55;20952;-67
2023/03/26 06:48:03;;;;;;;3.03;0.85;;;14.00;66.50;;;;;;2305320;55;20968;-68
2023/03/26 06:50:31;;;;;;;2.08;0.60;;;14.00;66.50;;;;;;2542418;53;21032;-67
2023/03/26 06:52:57;;;;;;;2.75;0.80;;;14.00;66.50;;;;;;2543184;54;21958;-67
2023/03/26 06:55:24;;;;;;;3.17;0.80;;;14.10;66.70;;;;;;2304020;55;21067;-67
2023/03/26 06:57:53;;;;;;;2.17;0.70;;;14.10;66.60;;;;;;2543238;54;21558;-69
2023/03/26 07:00:21;;;;;;;3.50;0.70;;;14.10;66.70;;;;;;2303116;55;20974;-67
2023/03/26 07:02:49;;;;;;;2.47;0.80;;;14.10;66.70;;;;;;2303170;55;21688;-69
2023/03/26 07:05:15;;;;;;;2.92;0.70;;;14.10;66.70;;;;;;2304124;55;20943;-69
2023/03/26 07:07:47;;;;;;;2.78;0.75;;;14.20;66.80;;;;;;2304700;55;21047;-69
2023/03/26 07:10:13;;;;;;;3.22;0.77;;;14.20;66.60;;;;;;2543396;54;22033;-69
2023/03/26 07:12:41;;;;;;;2.47;0.60;;;14.20;66.60;;;;;;2307251;54;20988;-67
2023/03/26 07:15:11;;;;;;;2.78;0.73;;;14.20;66.60;;;;;;2303893;55;21076;-69
2023/03/26 07:17:37;;;;;;;2.92;0.82;;;14.20;66.60;;;;;;2542986;54;20951;-67
2023/03/26 07:20:06;;;;;;;4.03;0.80;;;14.20;67.30;;;;;;2304094;55;20996;-70
2023/03/26 07:22:32;;;;;;;1.90;0.70;;;14.30;66.80;;;;;;2542834;53;20988;-69
2023/03/26 07:24:59;;;;;;;2.97;0.60;;;14.20;66.70;;;;;;2543418;54;21008;-69
2023/03/26 07:32:50;;;;;;;1.87;0.60;;;14.30;66.80;;;;;;2303982;54;21590;-67
2023/03/26 07:35:37;;;;;;;1.77;0.93;;;14.20;66.00;;;;;;2542736;54;20932;-67
2023/03/26 07:48:12;;;;;;;2.53;0.80;;;14.30;66.50;;;;;;2306927;55;20982;-68
2023/03/26 07:50:38;;;;;;;3.12;0.70;;;14.30;66.40;;;;;;2303121;55;21054;-67
2023/03/26 07:53:05;;;;;;;3.75;1.00;;;14.20;66.90;;;;;;2304390;55;20944;-69
2023/03/26 07:55:31;;;;;;;1.83;0.50;;;14.20;67.00;;;;;;2305851;54;22123;-69
2023/03/26 07:58:08;;;;;;;1.95;0.77;;;14.20;67.20;;;;;;2541426;54;20979;-70
2023/03/26 08:00:44;;;;;;;4.65;1.05;;;14.10;67.90;;;;;;2542232;54;22256;-69
2023/03/26 08:03:27;;;;;;;2.72;0.80;;;14.10;67.10;;;;;;2541992;54;21043;-69
2023/03/26 08:07:04;;;;;;;4.05;0.90;;;14.10;67.20;;;;;;2303005;55;20964;-67
2023/03/26 08:10:00;;;;;;;2.95;0.88;;;14.10;67.10;;;;;;2302893;55;20952;-70
2023/03/26 08:12:36;;;;;;;20.85;8.18;;;14.10;67.10;;;;;;2303709;55;20955;-70
2023/03/26 08:15:28;;;;;;;10.02;4.62;;;14.10;67.50;;;;;;2542612;54;20955;-69
2023/03/26 08:21:15;;;;;;;7.03;2.80;;;14.20;67.30;;;;;;2541446;53;20965;-70
2023/03/26 08:24:21;;;;;;;4.57;1.70;;;14.10;66.60;;;;;;2303994;55;21050;-70
2023/03/26 08:27:04;;;;;;;4.03;1.40;;;14.00;67.00;;;;;;2303556;55;21961;-69
2023/03/26 08:31:01;;;;;;;2.67;1.00;;;14.10;67.50;;;;;;2303407;55;21211;-69
2023/03/26 08:33:28;;;;;;;3.12;0.98;;;14.10;67.00;;;;;;2303806;55;21062;-71
2023/03/26 08:35:54;;;;;;;2.83;1.20;;;14.10;68.10;;;;;;2541924;53;20952;-69
2023/03/26 08:38:21;;;;;;;3.30;1.20;;;14.10;68.30;;;;;;2542047;54;21920;-72
2023/03/26 08:42:46;;;;;;;3.33;1.12;;;14.00;68.40;;;;;;2541708;54;20947;-68
2023/03/26 08:48:10;;;;;;;2.03;0.80;;;14.00;68.10;;;;;;2542335;54;21854;-68
2023/03/26 08:53:27;;;;;;;1.30;0.50;;;14.00;67.80;;;;;;2541134;53;21183;-69
2023/03/26 08:58:47;;;;;;;2.42;0.60;;;13.80;66.20;;;;;;2303096;55;20971;-69
2023/03/26 09:01:44;;;;;;;3.28;0.80;;;13.70;66.20;;;;;;2303518;55;20940;-69
2023/03/26 09:07:08;;;;;;;1.95;0.60;;;13.70;67.00;;;;;;2542549;53;20991;-71
2023/03/26 09:14:49;;;;;;;2.08;0.60;;;13.60;67.30;;;;;;2306007;55;20953;-69
2023/03/26 09:19:30;;;;;;;0.68;0.30;;;13.50;67.10;;;;;;2551856;54;21023;-69
2023/03/26 09:23:20;;;;;;;0.90;0.32;;;13.50;68.00;;;;;;2310825;54;21472;-71
2023/03/26 09:28:41;;;;;;;1.73;0.37;;;13.50;69.10;;;;;;2551125;54;21492;-70
2023/03/26 09:31:46;;;;;;;0.80;0.37;;;13.50;69.60;;;;;;2312357;55;21402;-69
2023/03/26 09:37:05;;;;;;;2.28;0.80;;;13.60;70.00;;;;;;2551821;54;21685;-69
2023/03/26 09:43:22;;;;;;;2.30;0.50;;;13.70;70.30;;;;;;2551104;54;21038;-69
2023/03/26 09:47:58;;;;;;;2.05;0.70;;;13.80;69.60;;;;;;2312132;55;21028;-70
2023/03/26 09:54:11;;;;;;;1.92;0.73;;;13.90;70.50;;;;;;2311072;55;20967;-69
2023/03/26 10:02:46;;;;;;;3.12;0.90;;;14.00;70.00;;;;;;2312534;54;21874;-69
2023/03/26 10:06:10;;;;;;;3.47;1.20;;;14.10;70.60;;;;;;2312110;55;20979;-71
2023/03/26 10:11:50;;;;;;;4.43;1.33;;;14.30;72.20;;;;;;2311689;55;20959;-70
2023/03/26 10:14:47;;;;;;;2.95;1.12;;;14.50;71.80;;;;;;2552300;54;20987;-68
2023/03/26 10:17:36;;;;;;;3.50;1.55;;;14.60;72.80;;;;;;2312253;54;20952;-70
2023/03/26 10:20:32;;;;;;;2.50;1.20;;;14.70;73.20;;;;;;2311644;55;20916;-71
2023/03/26 10:24:35;;;;;;;1.80;0.95;;;14.80;73.00;;;;;;2552444;54;21816;-71
2023/03/26 10:27:27;;;;;;;2.53;0.62;;;14.90;73.30;;;;;;2311325;55;20963;-68
2023/03/26 10:32:44;;;;;;;2.12;0.62;;;15.20;72.60;;;;;;2311383;55;21022;-68
2023/03/26 10:35:36;;;;;;;2.20;0.70;;;15.30;72.90;;;;;;2311525;55;22302;-68
2023/03/26 10:44:59;;;;;;;2.00;0.50;;;15.50;72.90;;;;;;2312383;55;21019;-69
2023/03/26 10:50:51;;;;;;;2.85;0.75;;;15.60;72.90;;;;;;2311801;54;21286;-69
2023/03/26 10:54:57;;;;;;;2.37;0.70;;;16.00;72.10;;;;;;2315959;55;21000;-68
2023/03/26 10:57:44;;;;;;;2.60;0.75;;;16.30;70.70;;;;;;2313171;55;21035;-68
2023/03/26 11:00:24;;;;;;;2.72;0.95;;;16.40;72.20;;;;;;2310117;54;21476;-68
2023/03/26 11:03:25;;;;;;;4.20;1.42;;;16.50;71.20;;;;;;2315201;55;20945;-69
2023/03/26 11:09:50;;;;;;;4.12;0.90;;;16.60;69.70;;;;;;2551559;54;20988;-68
2023/03/26 11:12:32;;;;;;;1.42;0.50;;;16.80;69.00;;;;;;2311912;55;20958;-71
2023/03/26 11:15:44;;;;;;;;;;;16.90;69.00;;;;;;2554837;53;20953;-68
2023/03/26 11:18:22;;;;;;;3.55;0.80;;;16.90;68.70;;;;;;2551702;54;20080;-69
2023/03/26 11:21:16;;;;;;;3.05;1.17;;;17.00;68.50;;;;;;2311803;55;20951;-68
2023/03/26 11:24:12;;;;;;;3.55;1.20;;;17.00;68.00;;;;;;2312097;55;21000;-67
2023/03/26 11:27:00;;;;;;;2.83;1.10;;;17.10;67.80;;;;;;2311599;55;21723;-68
2023/03/26 11:29:41;;;;;;;3.80;0.90;;;17.10;67.10;;;;;;2551713;54;20932;-68
2023/03/26 11:32:20;;;;;;;4.72;0.88;;;17.10;68.10;;;;;;2551149;54;21016;-68
2023/03/26 11:36:16;;;;;;;1.98;0.70;;;17.10;67.70;;;;;;2311245;54;20968;-68
2023/03/26 11:38:47;;;;;;;1.75;0.70;;;17.20;66.50;;;;;;2311817;55;20944;-68
2023/03/26 11:41:22;;;;;;;2.15;0.60;;;17.20;66.80;;;;;;2552312;54;21040;-67
2023/03/26 11:44:04;;;;;;;1.40;0.50;;;17.10;66.70;;;;;;2551073;54;20947;-67
2023/03/26 11:46:30;;;;;;;2.65;0.62;;;17.10;65.50;;;;;;2552068;54;20980;-67
2023/03/26 11:49:01;;;;;;;4.37;0.85;;;17.10;66.50;;;;;;2551941;54;20989;-68
2023/03/26 11:51:37;;;;;;;3.72;1.00;;;17.10;65.90;;;;;;2295309;54;20960;-69
2023/03/26 11:54:05;;;;;;;2.95;0.90;;;17.00;65.60;;;;;;2312026;55;21064;-68
2023/03/26 11:56:56;;;;;;;2.33;0.70;;;17.00;66.00;;;;;;2311960;55;21020;-67
2023/03/26 12:00:26;;;;;;;4.62;1.15;;;17.00;65.60;;;;;;2312153;55;21023;-68
2023/03/26 12:02:56;;;;;;;3.83;0.65;;;17.00;64.20;;;;;;2312204;55;21671;-68
2023/03/26 12:05:25;;;;;;;3.05;0.77;;;17.00;66.10;;;;;;2552447;54;20924;-69
2023/03/26 12:08:26;;;;;;;2.22;0.70;;;17.00;66.60;;;;;;2551275;53;21043;-68
2023/03/26 12:11:03;;;;;;;4.60;1.33;;;17.00;65.10;;;;;;2552023;54;21019;-68
2023/03/26 12:13:40;;;;;;;2.08;0.60;;;17.00;66.30;;;;;;2312460;55;21351;-68
2023/03/26 12:16:15;;;;;;;3.00;1.33;;;17.00;66.50;;;;;;2552103;54;21502;-68
2023/03/26 12:18:42;;;;;;;3.55;1.50;;;17.00;66.50;;;;;;2311982;55;21028;-68
2023/03/26 12:21:16;;;;;;;4.20;1.65;;;17.00;67.40;;;;;;2548573;53;20964;-68
2023/03/26 12:24:04;;;;;;;2.03;0.93;;;17.10;67.50;;;;;;2540600;53;20939;-68
2023/03/26 12:26:47;;;;;;;2.80;0.85;;;17.10;66.60;;;;;;2314273;55;21027;-67
2023/03/26 12:29:17;;;;;;;2.78;1.25;;;17.10;67.60;;;;;;2551798;54;20967;-68
2023/03/26 12:32:17;;;;;;;2.33;0.70;;;17.20;67.40;;;;;;2312136;55;20951;-67
2023/03/26 12:34:46;;;;;;;1.90;0.62;;;17.20;64.80;;;;;;2312329;54;20962;-68
2023/03/26 12:37:35;;;;;;;4.32;0.62;;;17.20;66.50;;;;;;2315620;55;21453;-68
2023/03/26 12:40:31;;;;;;;4.50;0.90;;;17.20;64.40;;;;;;2311474;54;20971;-67
2023/03/26 12:42:59;;;;;;;2.12;0.57;;;17.20;64.50;;;;;;2552066;54;20947;-68
2023/03/26 12:45:40;;;;;;;2.50;0.77;;;17.20;66.10;;;;;;2551705;54;21520;-68
2023/03/26 12:48:06;;;;;;;3.22;0.70;;;17.10;65.30;;;;;;2552292;53;21051;-68
2023/03/26 12:52:09;;;;;;;2.72;0.60;;;17.10;65.80;;;;;;2551518;54;21020;-68
2023/03/26 12:56:00;;;;;;;2.92;0.73;;;17.00;63.50;;;;;;2314952;54;21043;-67
2023/03/26 13:01:41;;;;;;;3.75;0.60;;;16.90;63.70;;;;;;2551796;53;20991;-68
2023/03/26 13:06:03;;;;;;;5.40;0.70;;;16.80;64.00;;;;;;2551550;54;21016;-67
2023/03/26 13:09:10;;;;;;;2.30;0.60;;;16.70;63.60;;;;;;2552112;53;21012;-69
2023/03/26 13:15:54;;;;;;;3.10;0.80;;;16.60;64.00;;;;;;2313250;55;21011;-66
2023/03/26 13:18:47;;;;;;;1.33;0.40;;;16.50;64.20;;;;;;2313692;54;21338;-69
2023/03/26 13:21:39;;;;;;;2.90;0.60;;;16.50;65.40;;;;;;2313337;55;20971;-69
2023/03/26 13:24:21;;;;;;;2.67;0.40;;;16.50;65.80;;;;;;2552447;54;22462;-68
2023/03/26 13:27:05;;;;;;;1.58;0.50;;;16.40;65.20;;;;;;2313140;55;21780;-68
2023/03/26 13:31:12;;;;;;;2.87;0.70;;;16.30;65.50;;;;;;2552797;54;21013;-67
2023/03/26 13:34:14;;;;;;;2.80;0.68;;;16.30;65.90;;;;;;2313211;55;20967;-70
2023/03/26 13:37:23;;;;;;;1.85;0.65;;;16.30;65.40;;;;;;2313857;55;20952;-68
2023/03/26 13:40:21;;;;;;;3.17;0.62;;;16.20;65.00;;;;;;2555167;54;20951;-69
2023/03/26 13:43:26;;;;;;;2.33;0.70;;;16.20;65.40;;;;;;2555912;54;20972;-70
2023/03/26 13:46:20;;;;;;;3.10;0.70;;;16.10;64.70;;;;;;2556122;54;21000;-68
2023/03/26 13:49:27;;;;;;;4.07;0.90;;;16.10;65.60;;;;;;2313751;55;20968;-67
2023/03/26 13:55:45;;;;;;;1.62;0.50;;;15.80;65.10;;;;;;2554451;54;20932;-68
2023/03/26 13:59:08;;;;;;;1.95;0.60;;;15.90;65.80;;;;;;2554252;54;20944;-67
2023/03/26 14:01:39;;;;;;;4.50;0.90;;;15.80;65.20;;;;;;2318408;55;21716;-71
2023/03/26 14:04:22;;;;;;;3.33;0.75;;;15.70;66.60;;;;;;2553397;54;20940;-68
2023/03/26 14:06:56;;;;;;;2.47;0.80;;;15.60;66.20;;;;;;2314317;55;21053;-68
2023/03/26 14:13:15;;;;;;;2.42;0.70;;;15.50;66.60;;;;;;2553534;54;21408;-70
2023/03/26 14:15:51;;;;;;;2.47;0.50;;;15.30;65.60;;;;;;2552980;54;21488;-70
2023/03/26 14:19:02;;;;;;;1.30;0.40;;;15.20;64.70;;;;;;2313850;55;21510;-70
2023/03/26 14:24:31;;;;;;;1.12;0.45;;;15.00;63.10;;;;;;2316255;55;21034;-71
2023/03/26 14:30:00;;;;;;;0.65;0.30;;;14.70;63.10;;;;;;2316591;54;21008;-68
2023/03/26 14:33:51;;;;;;;2.00;0.60;;;14.30;63.30;;;;;;2313833;55;20991;-68
2023/03/26 14:36:36;;;;;;;0.62;0.30;;;13.90;63.00;;;;;;2314321;55;22284;-68
2023/03/26 14:42:53;;;;;;;2.58;0.40;;;13.70;64.70;;;;;;2313635;55;20936;-68
2023/03/26 14:46:30;;;;;;;1.50;0.35;;;13.60;64.80;;;;;;2314013;55;21499;-69
2023/03/26 14:49:10;;;;;;;0.93;0.35;;;13.30;65.30;;;;;;2313747;55;20975;-68
2023/03/26 14:53:14;;;;;;;1.08;0.57;;;13.30;67.00;;;;;;2553814;54;20908;-68
2023/03/26 14:55:50;;;;;;;;;;;13.20;67.00;;;;;;2553515;54;20979;-68
2023/03/26 14:58:51;;;;;;;0.88;0.40;;;13.20;66.10;;;;;;2313729;55;20095;-68
2023/03/26 15:01:28;;;;;;;1.20;0.50;;;13.10;67.60;;;;;;2314428;55;21023;-68
2023/03/26 15:09:01;;;;;;;2.08;0.73;;;13.10;67.80;;;;;;2312946;55;20947;-68
2023/03/26 15:11:38;;;;;;;0.82;0.40;;;13.10;66.70;;;;;;2290808;54;3414264;-70
2023/03/26 15:17:30;;;;;;;0.68;0.22;;;13.00;68.00;;;;;;2313448;54;21023;-68
2023/03/26 15:20:24;;;;;;;1.80;0.70;;;13.00;67.10;;;;;;2552755;54;21846;-68
2023/03/26 15:28:48;;;;;;;2.12;0.70;;;13.00;67.90;;;;;;2552434;53;21057;-68
2023/03/26 15:32:55;;;;;;;0.68;0.40;;;12.90;67.50;;;;;;2313547;55;20971;-68
2023/03/26 15:42:19;;;;;;;0.95;0.40;;;12.90;68.40;;;;;;2552539;54;21452;-68
2023/03/26 15:46:57;;;;;;;0.70;0.30;;;12.90;68.50;;;;;;2552529;54;21012;-68
2023/03/26 15:49:42;;;;;;;0.80;0.30;;;12.90;68.50;;;;;;2552307;54;21051;-68
2023/03/26 15:59:18;;;;;;;2.12;0.50;;;12.90;69.00;;;;;;2552139;54;21270;-68